Time;durP1;ratioP1;P1;durP2;ratioP2;P2;SDS_P1;SDS_P2;PMS_P1;PMS_P2;Temp;Humidity;BMP_temperature;BMP_pressure;BME280_temperature;BME280_humidity;BME280_pressure;Samples;Min_cycle;Max_cycle;Signal;HPM_P1;HPM_P2
2022/04/14 00:02:06;;;;;;;18.75;8.68;;;;;;;;;;4930504;29;20044;-83
2022/04/14 00:04:35;;;;;;;14.07;8.15;;;;;;;;;;4928206;29;20135;-86
2022/04/14 00:07:02;;;;;;;13.63;8.85;;;;;;;;;;4928869;29;20095;-85
2022/04/14 00:09:28;;;;;;;14.73;8.48;;;;;;;;;;4924067;29;20035;-84
2022/04/14 00:11:55;;;;;;;13.63;9.25;;;;;;;;;;4908964;29;20050;-84
2022/04/14 00:14:21;;;;;;;15.70;8.85;;;;;;;;;;4925753;29;20556;-85
2022/04/14 00:16:47;;;;;;;13.63;9.60;;;;;;;;;;4927782;29;20162;-84
2022/04/14 00:19:13;;;;;;;13.60;8.73;;;;;;;;;;4923946;29;20103;-84
2022/04/14 00:21:40;;;;;;;15.57;9.27;;;;;;;;;;4909674;29;20049;-83
2022/04/14 00:24:06;;;;;;;16.48;9.32;;;;;;;;;;4911187;29;20135;-83
2022/04/14 00:26:32;;;;;;;17.05;9.05;;;;;;;;;;4926220;29;20079;-84
2022/04/14 00:28:58;;;;;;;17.75;9.10;;;;;;;;;;4925025;29;20039;-82
2022/04/14 00:31:24;;;;;;;15.30;10.55;;;;;;;;;;4925610;29;20055;-84
2022/04/14 00:33:50;;;;;;;13.70;9.35;;;;;;;;;;4910134;29;20134;-83
2022/04/14 00:36:17;;;;;;;19.27;9.85;;;;;;;;;;4904998;29;20416;-84
2022/04/14 00:38:43;;;;;;;17.17;10.20;;;;;;;;;;4894671;29;20113;-83
2022/04/14 00:41:09;;;;;;;14.00;10.20;;;;;;;;;;4924892;29;20047;-83
2022/04/14 00:43:35;;;;;;;17.58;10.75;;;;;;;;;;4910465;29;20050;-86
2022/04/14 00:46:02;;;;;;;18.85;10.57;;;;;;;;;;4893145;29;20052;-83
2022/04/14 00:48:29;;;;;;;20.02;10.88;;;;;;;;;;4925899;29;20059;-83
2022/04/14 00:50:56;;;;;;;18.92;11.68;;;;;;;;;;4909396;29;20047;-83
2022/04/14 00:53:22;;;;;;;16.05;10.90;;;;;;;;;;4893658;29;20051;-83
2022/04/14 00:55:49;;;;;;;20.52;10.75;;;;;;;;;;4928237;29;20075;-83
2022/04/14 00:58:15;;;;;;;15.82;11.30;;;;;;;;;;4907921;29;20048;-84
2022/04/14 01:00:41;;;;;;;15.82;11.18;;;;;;;;;;4926750;29;20056;-84
2022/04/14 01:03:08;;;;;;;19.05;11.13;;;;;;;;;;4923021;29;20039;-84
2022/04/14 01:05:34;;;;;;;18.23;11.50;;;;;;;;;;4927439;29;20048;-84
2022/04/14 01:08:00;;;;;;;14.68;10.80;;;;;;;;;;4924717;29;20035;-83
2022/04/14 01:10:26;;;;;;;19.55;11.40;;;;;;;;;;4924869;29;20051;-83
2022/04/14 01:12:55;;;;;;;17.52;12.07;;;;;;;;;;4893202;29;20071;-83
2022/04/14 01:15:21;;;;;;;23.02;11.55;;;;;;;;;;4906911;29;20051;-83
2022/04/14 01:17:48;;;;;;;21.90;11.65;;;;;;;;;;4893634;29;20039;-84
2022/04/14 01:20:14;;;;;;;19.77;12.10;;;;;;;;;;4905619;29;20186;-82
2022/04/14 01:22:48;;;;;;;18.58;12.40;;;;;;;;;;4893924;29;20571;-83
2022/04/14 01:25:14;;;;;;;18.83;11.20;;;;;;;;;;4919115;29;20058;-84
2022/04/14 01:27:40;;;;;;;15.15;11.40;;;;;;;;;;4909148;29;20071;-83
2022/04/14 01:30:07;;;;;;;20.15;11.82;;;;;;;;;;4926608;29;20035;-82
2022/04/14 01:32:33;;;;;;;15.80;12.30;;;;;;;;;;4922716;29;20501;-83
2022/04/14 01:34:59;;;;;;;21.60;11.93;;;;;;;;;;4925335;29;20071;-84
2022/04/14 01:37:26;;;;;;;17.25;11.68;;;;;;;;;;4922223;29;20496;-83
2022/04/14 01:40:01;;;;;;;16.92;12.40;;;;;;;;;;4923826;29;20075;-86
2022/04/14 01:42:27;;;;;;;21.00;14.00;;;;;;;;;;4924775;29;20058;-83
2022/04/14 01:44:54;;;;;;;17.70;12.02;;;;;;;;;;4927554;29;20397;-84
2022/04/14 01:47:20;;;;;;;27.70;13.23;;;;;;;;;;4925380;29;20116;-83
2022/04/14 01:49:46;;;;;;;18.75;12.00;;;;;;;;;;4907920;29;20115;-84
2022/04/14 01:52:12;;;;;;;21.73;12.73;;;;;;;;;;4905721;29;20388;-83
2022/04/14 01:54:38;;;;;;;20.25;13.57;;;;;;;;;;4925954;29;20086;-84
2022/04/14 01:57:05;;;;;;;19.95;13.25;;;;;;;;;;4909878;29;20047;-82
2022/04/14 01:59:31;;;;;;;16.33;13.25;;;;;;;;;;4929600;29;20040;-82
2022/04/14 02:01:57;;;;;;;17.85;14.00;;;;;;;;;;4931834;29;20047;-83
2022/04/14 02:04:23;;;;;;;21.02;14.05;;;;;;;;;;4923214;29;20047;-83
2022/04/14 02:06:49;;;;;;;24.05;14.57;;;;;;;;;;4926589;29;20044;-82
2022/04/14 02:09:15;;;;;;;22.63;14.60;;;;;;;;;;4924464;29;20042;-83
2022/04/14 02:11:41;;;;;;;21.55;15.00;;;;;;;;;;4925923;29;20039;-84
2022/04/14 02:14:07;;;;;;;23.08;15.43;;;;;;;;;;4929647;29;20055;-83
2022/04/14 02:16:33;;;;;;;24.27;15.80;;;;;;;;;;4914395;29;20685;-83
2022/04/14 02:18:59;;;;;;;22.08;15.57;;;;;;;;;;4929203;29;20043;-84
2022/04/14 02:21:25;;;;;;;22.67;14.75;;;;;;;;;;4912211;29;20106;-85
2022/04/14 02:23:52;;;;;;;23.67;15.85;;;;;;;;;;4929814;29;20032;-84
2022/04/14 02:26:19;;;;;;;23.10;15.13;;;;;;;;;;4920713;29;20072;-83
2022/04/14 02:28:45;;;;;;;26.73;16.45;;;;;;;;;;4923858;29;20040;-83
2022/04/14 02:31:12;;;;;;;23.80;16.58;;;;;;;;;;4924337;29;20058;-84
2022/04/14 02:33:38;;;;;;;29.83;16.95;;;;;;;;;;4924430;29;20040;-84
2022/04/14 02:36:04;;;;;;;23.80;17.85;;;;;;;;;;4927402;29;20048;-83
2022/04/14 02:38:30;;;;;;;24.10;15.95;;;;;;;;;;4923689;29;20846;-85
2022/04/14 02:40:56;;;;;;;23.10;16.65;;;;;;;;;;4907796;29;20138;-85
2022/04/14 02:43:22;;;;;;;26.65;17.83;;;;;;;;;;4922800;29;20103;-83
2022/04/14 02:45:48;;;;;;;26.67;17.35;;;;;;;;;;4923706;29;20032;-84
2022/04/14 02:48:14;;;;;;;27.85;17.83;;;;;;;;;;4892069;29;20078;-83
2022/04/14 02:50:43;;;;;;;31.58;19.75;;;;;;;;;;4923023;29;20102;-85
2022/04/14 02:53:09;;;;;;;25.67;18.50;;;;;;;;;;4927975;29;20048;-85
2022/04/14 02:55:35;;;;;;;28.75;19.13;;;;;;;;;;4927944;29;20131;-83
2022/04/14 02:58:01;;;;;;;26.98;19.20;;;;;;;;;;4912464;29;20048;-84
2022/04/14 03:00:28;;;;;;;26.40;19.10;;;;;;;;;;4927440;29;20044;-84
2022/04/14 03:02:54;;;;;;;32.47;19.27;;;;;;;;;;4925626;29;20111;-84
2022/04/14 03:05:20;;;;;;;29.45;17.88;;;;;;;;;;4905891;29;20075;-85
2022/04/14 03:07:46;;;;;;;24.80;18.25;;;;;;;;;;4924088;29;20040;-84
2022/04/14 03:10:12;;;;;;;30.60;19.55;;;;;;;;;;4924082;29;20062;-84
2022/04/14 03:12:41;;;;;;;31.52;20.10;;;;;;;;;;4923199;29;20087;-84
2022/04/14 03:15:07;;;;;;;29.42;20.35;;;;;;;;;;4929279;29;20071;-83
2022/04/14 03:17:33;;;;;;;33.75;20.88;;;;;;;;;;4926619;29;20051;-84
2022/04/14 03:19:59;;;;;;;29.20;19.10;;;;;;;;;;4927981;29;20178;-85
2022/04/14 03:22:25;;;;;;;29.88;20.05;;;;;;;;;;4924521;29;20468;-84
2022/04/14 03:24:52;;;;;;;35.88;20.65;;;;;;;;;;4923996;29;20898;-85
2022/04/14 03:27:18;;;;;;;28.27;20.83;;;;;;;;;;4927462;29;20043;-85
2022/04/14 03:29:45;;;;;;;33.67;21.33;;;;;;;;;;4926343;29;20055;-85
2022/04/14 03:32:11;;;;;;;33.55;21.95;;;;;;;;;;4927499;29;20111;-85
2022/04/14 03:34:38;;;;;;;30.25;22.00;;;;;;;;;;4927668;29;20119;-85
2022/04/14 03:37:07;;;;;;;34.85;21.15;;;;;;;;;;4926345;29;20494;-85
2022/04/14 03:39:33;;;;;;;35.83;23.17;;;;;;;;;;4925030;29;20073;-84
2022/04/14 03:41:59;;;;;;;33.30;22.17;;;;;;;;;;4928101;29;20051;-84
2022/04/14 03:44:25;;;;;;;37.45;22.95;;;;;;;;;;4927098;29;20061;-84
2022/04/14 03:46:51;;;;;;;35.88;21.58;;;;;;;;;;4927673;29;20123;-84
2022/04/14 03:49:17;;;;;;;39.05;24.38;;;;;;;;;;4927268;29;20122;-85
2022/04/14 03:51:43;;;;;;;35.05;23.88;;;;;;;;;;4911002;29;20496;-85
2022/04/14 03:54:09;;;;;;;39.97;23.52;;;;;;;;;;4929416;29;20147;-84
2022/04/14 03:56:35;;;;;;;33.88;22.65;;;;;;;;;;4927271;29;20084;-83
2022/04/14 03:59:01;;;;;;;38.38;25.77;;;;;;;;;;4927712;29;20047;-85
2022/04/14 04:01:27;;;;;;;36.53;24.27;;;;;;;;;;4924848;29;20039;-84
2022/04/14 04:03:54;;;;;;;43.33;25.20;;;;;;;;;;4909176;29;20087;-84
2022/04/14 04:06:20;;;;;;;39.67;25.75;;;;;;;;;;4926926;29;20054;-84
2022/04/14 04:08:46;;;;;;;41.17;25.50;;;;;;;;;;4925001;29;20143;-84
2022/04/14 04:11:12;;;;;;;44.08;27.33;;;;;;;;;;4909244;29;20040;-84
2022/04/14 04:13:38;;;;;;;41.75;26.58;;;;;;;;;;4923488;29;20134;-83
2022/04/14 04:16:04;;;;;;;47.67;27.38;;;;;;;;;;4926904;29;20083;-84
2022/04/14 04:18:33;;;;;;;46.88;28.13;;;;;;;;;;4908055;29;20044;-85
2022/04/14 04:20:59;;;;;;;53.28;29.20;;;;;;;;;;4926034;29;20126;-85
2022/04/14 04:23:25;;;;;;;45.10;29.73;;;;;;;;;;4926359;29;20099;-83
2022/04/14 04:25:51;;;;;;;47.63;29.15;;;;;;;;;;4926037;29;20042;-84
2022/04/14 04:28:18;;;;;;;46.17;29.13;;;;;;;;;;4926003;29;20131;-84
2022/04/14 04:30:44;;;;;;;43.58;28.02;;;;;;;;;;4944262;29;20083;-85
2022/04/14 04:35:42;;;;;;;49.88;31.38;;;;;;;;;;4933868;23;20107;-84
2022/04/14 04:38:08;;;;;;;48.20;28.70;;;;;;;;;;4929088;29;20039;-86
2022/04/14 04:40:34;;;;;;;48.22;28.83;;;;;;;;;;4931497;29;20206;-87
2022/04/14 04:43:00;;;;;;;45.08;28.42;;;;;;;;;;4928888;29;20048;-87
2022/04/14 04:45:26;;;;;;;55.03;31.25;;;;;;;;;;4932255;29;20052;-87
2022/04/14 04:47:52;;;;;;;50.90;31.58;;;;;;;;;;4929301;29;20043;-87
2022/04/14 04:50:18;;;;;;;44.33;29.35;;;;;;;;;;4927621;29;20448;-85
2022/04/14 04:52:44;;;;;;;53.30;32.20;;;;;;;;;;4929333;29;20098;-84
2022/04/14 04:55:11;;;;;;;52.67;31.27;;;;;;;;;;4927305;29;20047;-85
2022/04/14 04:57:37;;;;;;;50.28;30.63;;;;;;;;;;4928860;29;20035;-86
2022/04/14 05:00:04;;;;;;;48.28;31.90;;;;;;;;;;4931837;29;20465;-85
2022/04/14 05:02:30;;;;;;;48.20;31.85;;;;;;;;;;4912897;29;20385;-85
2022/04/14 05:04:57;;;;;;;51.78;31.05;;;;;;;;;;4929838;29;20113;-85
2022/04/14 05:07:23;;;;;;;51.58;30.83;;;;;;;;;;4926578;29;20122;-84
2022/04/14 05:09:49;;;;;;;48.70;30.05;;;;;;;;;;4928543;29;20036;-86
2022/04/14 05:12:15;;;;;;;50.90;32.15;;;;;;;;;;4910382;29;20094;-84
2022/04/14 05:14:41;;;;;;;55.40;33.00;;;;;;;;;;4927444;29;20047;-84
2022/04/14 05:17:07;;;;;;;51.33;33.47;;;;;;;;;;4926542;29;20042;-84
2022/04/14 05:19:33;;;;;;;50.08;32.60;;;;;;;;;;4928770;29;20074;-84
2022/04/14 05:22:01;;;;;;;53.67;32.97;;;;;;;;;;4925649;29;20047;-84
2022/04/14 05:24:27;;;;;;;55.58;34.80;;;;;;;;;;4926615;29;20047;-85
2022/04/14 05:26:53;;;;;;;51.17;33.38;;;;;;;;;;4926639;29;20047;-84
2022/04/14 05:29:19;;;;;;;54.35;34.00;;;;;;;;;;4910106;29;20100;-84
2022/04/14 05:31:46;;;;;;;52.42;34.45;;;;;;;;;;4910527;29;20090;-85
2022/04/14 05:34:12;;;;;;;46.65;32.80;;;;;;;;;;4875092;29;20092;-84
2022/04/14 05:36:38;;;;;;;57.38;33.80;;;;;;;;;;4906891;29;20444;-84
2022/04/14 05:39:04;;;;;;;67.47;35.80;;;;;;;;;;4909293;29;20492;-84
2022/04/14 05:41:30;;;;;;;54.00;34.60;;;;;;;;;;4910890;29;20644;-84
2022/04/14 05:43:56;;;;;;;53.88;33.88;;;;;;;;;;4912040;29;20052;-84
2022/04/14 05:46:23;;;;;;;60.35;36.10;;;;;;;;;;4929598;29;20063;-85
2022/04/14 05:48:49;;;;;;;55.63;36.55;;;;;;;;;;4917303;29;20078;-85
2022/04/14 05:51:16;;;;;;;61.35;38.20;;;;;;;;;;4923953;29;20147;-84
2022/04/14 05:53:42;;;;;;;61.67;38.75;;;;;;;;;;4910241;29;20031;-84
2022/04/14 05:56:08;;;;;;;58.72;37.72;;;;;;;;;;4892931;29;20154;-84
2022/04/14 05:58:35;;;;;;;59.33;38.63;;;;;;;;;;4927643;29;20505;-84
2022/04/14 06:01:01;;;;;;;62.42;39.75;;;;;;;;;;4906914;29;20059;-84
2022/04/14 06:03:27;;;;;;;62.63;39.70;;;;;;;;;;4904771;29;20047;-84
2022/04/14 06:05:53;;;;;;;60.30;41.45;;;;;;;;;;4907436;29;20075;-85
2022/04/14 06:08:19;;;;;;;61.60;41.20;;;;;;;;;;4922362;29;20036;-84
2022/04/14 06:10:45;;;;;;;69.28;43.28;;;;;;;;;;4906573;29;20074;-87
2022/04/14 06:13:11;;;;;;;64.70;40.60;;;;;;;;;;4907449;29;20039;-83
2022/04/14 06:15:37;;;;;;;73.97;43.03;;;;;;;;;;4894772;29;20043;-86
2022/04/14 06:18:04;;;;;;;69.30;42.50;;;;;;;;;;4907226;29;20505;-85
2022/04/14 06:20:30;;;;;;;61.67;41.92;;;;;;;;;;4878302;29;20091;-85
2022/04/14 06:22:58;;;;;;;68.03;43.90;;;;;;;;;;4905615;29;20052;-85
2022/04/14 06:25:25;;;;;;;66.60;42.35;;;;;;;;;;4909336;29;20111;-84
2022/04/14 06:27:52;;;;;;;67.68;43.00;;;;;;;;;;4922483;29;20148;-88
2022/04/14 06:30:19;;;;;;;72.93;43.55;;;;;;;;;;4922785;29;20042;-88
2022/04/14 06:32:55;;;;;;;65.55;42.10;;;;;;;;;;4905890;29;20040;-87
2022/04/14 06:35:21;;;;;;;67.60;42.95;;;;;;;;;;4925911;29;20111;-94
2022/04/14 06:37:47;;;;;;;63.78;41.17;;;;;;;;;;4909184;29;20071;-88
2022/04/14 06:40:13;;;;;;;67.05;42.42;;;;;;;;;;4908175;29;20052;-88
2022/04/14 06:42:39;;;;;;;71.63;41.88;;;;;;;;;;4923663;29;20050;-86
2022/04/14 06:45:06;;;;;;;61.15;39.58;;;;;;;;;;4921201;29;20043;-87
2022/04/14 06:47:32;;;;;;;60.90;41.08;;;;;;;;;;4906338;29;20059;-88
2022/04/14 06:49:58;;;;;;;63.95;39.45;;;;;;;;;;4924263;29;20090;-87
2022/04/14 06:52:24;;;;;;;61.88;40.40;;;;;;;;;;4921313;29;20141;-86
2022/04/14 06:54:50;;;;;;;56.55;37.95;;;;;;;;;;4910353;29;20217;-88
2022/04/14 06:57:18;;;;;;;58.63;38.75;;;;;;;;;;4924803;29;20111;-87
2022/04/14 06:59:44;;;;;;;52.47;36.65;;;;;;;;;;4905589;29;20567;-86
2022/04/14 07:02:10;;;;;;;56.50;37.63;;;;;;;;;;4906073;29;20052;-87
2022/04/14 07:04:36;;;;;;;58.42;35.38;;;;;;;;;;4922743;29;20032;-87
2022/04/14 07:07:02;;;;;;;52.83;35.47;;;;;;;;;;4925171;29;20035;-86
2022/04/14 07:09:32;;;;;;;53.70;35.15;;;;;;;;;;4904987;29;20048;-88
2022/04/14 07:11:59;;;;;;;47.08;34.05;;;;;;;;;;4906299;29;20116;-87
2022/04/14 07:14:27;;;;;;;52.92;34.08;;;;;;;;;;4910441;29;20039;-87
2022/04/14 07:16:53;;;;;;;49.28;33.63;;;;;;;;;;4907389;29;20039;-86
2022/04/14 07:19:19;;;;;;;45.30;31.77;;;;;;;;;;4892291;29;20084;-87
2022/04/14 07:21:46;;;;;;;47.92;32.05;;;;;;;;;;4908560;29;20043;-86
2022/04/14 07:24:12;;;;;;;46.55;31.85;;;;;;;;;;4894713;29;20130;-87
2022/04/14 07:26:38;;;;;;;45.83;30.73;;;;;;;;;;4889630;29;20079;-87
2022/04/14 07:29:05;;;;;;;41.95;30.50;;;;;;;;;;4885920;29;20044;-86
2022/04/14 07:31:31;;;;;;;47.78;31.45;;;;;;;;;;4897630;29;20052;-87
2022/04/14 07:33:58;;;;;;;38.88;29.55;;;;;;;;;;4893786;29;20520;-87
2022/04/14 07:36:25;;;;;;;44.38;31.20;;;;;;;;;;4910529;29;20071;-87
2022/04/14 07:38:51;;;;;;;39.50;28.52;;;;;;;;;;4927809;29;20821;-87
2022/04/14 07:41:29;;;;;;;37.45;28.25;;;;;;;;;;4927840;29;20095;-86
2022/04/14 07:44:14;;;;;;;39.78;28.95;;;;;;;;;;4918357;29;20756;-86
2022/04/14 07:46:41;;;;;;;;;;;;;;;;;;4893347;29;20049;-86
2022/04/14 07:49:07;;;;;;;36.47;26.13;;;;;;;;;;4921927;29;19930;-87
2022/04/14 07:51:33;;;;;;;33.50;25.10;;;;;;;;;;4907046;29;20170;-86
2022/04/14 07:53:59;;;;;;;34.42;25.60;;;;;;;;;;4908119;29;20040;-85
2022/04/14 07:56:25;;;;;;;32.25;24.52;;;;;;;;;;4915839;29;20051;-86
2022/04/14 07:58:52;;;;;;;36.80;26.20;;;;;;;;;;4917484;29;20036;-87
2022/04/14 08:01:21;;;;;;;37.88;24.13;;;;;;;;;;4928526;29;20059;-86
2022/04/14 08:03:47;;;;;;;38.00;24.83;;;;;;;;;;4896665;29;20786;-87
2022/04/14 08:06:16;;;;;;;37.28;25.85;;;;;;;;;;4917898;29;20036;-87
2022/04/14 08:08:42;;;;;;;32.40;24.38;;;;;;;;;;4936015;28;20036;-88
2022/04/14 08:11:10;;;;;;;31.05;23.23;;;;;;;;;;4956391;28;20108;-87
2022/04/14 08:13:38;;;;;;;35.15;23.98;;;;;;;;;;4955347;28;20050;-86
2022/04/14 08:16:08;;;;;;;30.60;22.65;;;;;;;;;;4914120;29;20408;-87
2022/04/14 08:18:36;;;;;;;32.33;22.95;;;;;;;;;;4919646;29;20032;-87
2022/04/14 08:21:02;;;;;;;31.70;24.13;;;;;;;;;;4951444;28;20031;-88
2022/04/14 08:23:28;;;;;;;33.42;23.67;;;;;;;;;;4952787;28;20016;-88
2022/04/14 08:25:54;;;;;;;34.63;25.05;;;;;;;;;;5010297;23;20040;-84
2022/04/14 08:28:21;;;;;;;30.85;22.67;;;;;;;;;;4952190;28;20055;-86
2022/04/14 08:30:47;;;;;;;29.73;23.10;;;;;;;;;;4935317;29;20400;-86
2022/04/14 08:33:14;;;;;;;31.77;23.08;;;;;;;;;;4932584;29;20063;-86
2022/04/14 08:35:40;;;;;;;35.42;24.15;;;;;;;;;;4915520;29;20040;-87
2022/04/14 08:38:08;;;;;;;33.75;23.95;;;;;;;;;;4916650;29;20063;-86
2022/04/14 08:40:36;;;;;;;29.15;22.42;;;;;;;;;;4934669;29;20047;-88
2022/04/14 08:43:05;;;;;;;31.88;22.95;;;;;;;;;;4929155;29;20511;-86
2022/04/14 08:45:35;;;;;;;37.50;23.92;;;;;;;;;;4932888;29;20052;-85
2022/04/14 08:48:02;;;;;;;27.35;21.70;;;;;;;;;;4931646;29;20047;-85
2022/04/14 08:50:29;;;;;;;33.47;23.17;;;;;;;;;;4931052;29;20384;-85
2022/04/14 08:52:55;;;;;;;32.03;22.20;;;;;;;;;;4915105;29;20058;-87
2022/04/14 08:55:22;;;;;;;30.52;21.33;;;;;;;;;;4928627;29;20054;-87
2022/04/14 08:57:48;;;;;;;31.13;21.98;;;;;;;;;;4907303;29;20587;-86
2022/04/14 09:00:24;;;;;;;26.48;21.15;;;;;;;;;;4925157;29;20055;-86
2022/04/14 09:02:51;;;;;;;28.90;22.20;;;;;;;;;;4906922;29;20036;-87
2022/04/14 09:05:17;;;;;;;28.02;22.25;;;;;;;;;;4925585;29;20040;-87
2022/04/14 09:07:50;;;;;;;28.52;20.58;;;;;;;;;;4896793;29;20040;-87
2022/04/14 09:10:17;;;;;;;26.10;20.02;;;;;;;;;;4912439;29;20090;-86
2022/04/14 09:12:43;;;;;;;25.33;20.38;;;;;;;;;;4874713;29;20048;-86
2022/04/14 09:15:10;;;;;;;28.30;20.33;;;;;;;;;;4912097;29;20047;-87
2022/04/14 09:17:36;;;;;;;25.15;20.83;;;;;;;;;;4907352;29;20099;-88
2022/04/14 09:20:22;;;;;;;25.42;20.02;;;;;;;;;;4913007;29;20055;-87
2022/04/14 09:23:08;;;;;;;24.23;19.10;;;;;;;;;;4893452;29;20075;-86
2022/04/14 09:25:35;;;;;;;26.10;20.35;;;;;;;;;;4895287;29;20051;-84
2022/04/14 09:28:20;;;;;;;23.67;17.90;;;;;;;;;;4927923;29;20103;-84
2022/04/14 09:31:00;;;;;;;24.92;17.63;;;;;;;;;;4895124;29;20071;-84
2022/04/14 09:33:26;;;;;;;22.55;17.48;;;;;;;;;;4896370;29;20511;-83
2022/04/14 09:36:13;;;;;;;23.85;18.38;;;;;;;;;;4925680;29;20743;-85
2022/04/14 09:38:58;;;;;;;23.80;18.98;;;;;;;;;;4906380;29;20094;-83
2022/04/14 09:41:41;;;;;;;21.17;16.38;;;;;;;;;;4896849;29;20090;-84
2022/04/14 09:44:12;;;;;;;20.60;16.95;;;;;;;;;;4927766;29;20058;-84
2022/04/14 09:46:42;;;;;;;20.92;16.50;;;;;;;;;;4912197;29;20059;-84
2022/04/14 09:49:15;;;;;;;21.08;16.98;;;;;;;;;;4910915;29;20110;-84
2022/04/14 09:51:43;;;;;;;19.25;15.43;;;;;;;;;;4911228;29;20531;-83
2022/04/14 09:54:17;;;;;;;19.80;14.70;;;;;;;;;;4893645;29;20051;-84
2022/04/14 09:56:53;;;;;;;18.77;14.52;;;;;;;;;;4895412;29;20543;-84
2022/04/14 09:59:20;;;;;;;19.42;14.20;;;;;;;;;;4928661;29;20043;-84
2022/04/14 10:01:47;;;;;;;19.88;13.23;;;;;;;;;;4893732;29;20056;-83
2022/04/14 10:04:32;;;;;;;16.55;13.40;;;;;;;;;;4880102;29;20138;-83
2022/04/14 10:07:05;;;;;;;19.77;13.23;;;;;;;;;;4893472;29;20047;-83
2022/04/14 10:09:31;;;;;;;19.27;14.80;;;;;;;;;;4895056;29;20130;-86
2022/04/14 10:11:58;;;;;;;18.33;14.15;;;;;;;;;;4894330;29;20445;-86
2022/04/14 10:14:25;;;;;;;20.38;14.50;;;;;;;;;;4895520;29;20071;-84
2022/04/14 10:16:51;;;;;;;18.02;13.63;;;;;;;;;;4895501;29;20149;-85
2022/04/14 10:19:18;;;;;;;18.23;12.45;;;;;;;;;;4928005;29;20044;-84
2022/04/14 10:21:45;;;;;;;16.52;10.80;;;;;;;;;;4912786;29;20051;-85
2022/04/14 10:24:14;;;;;;;14.02;10.77;;;;;;;;;;4925749;29;20055;-84
2022/04/14 10:26:43;;;;;;;16.58;11.68;;;;;;;;;;4911842;29;20094;-84
2022/04/14 10:29:12;;;;;;;17.02;12.93;;;;;;;;;;4928346;29;20146;-84
2022/04/14 10:31:38;;;;;;;17.23;13.73;;;;;;;;;;4928765;29;20048;-84
2022/04/14 10:34:06;;;;;;;21.02;14.30;;;;;;;;;;4928068;29;20044;-84
2022/04/14 10:36:39;;;;;;;17.60;13.05;;;;;;;;;;4927853;29;20530;-84
2022/04/14 10:39:06;;;;;;;15.80;12.95;;;;;;;;;;4895182;29;20397;-85
2022/04/14 10:41:34;;;;;;;17.73;13.25;;;;;;;;;;4909635;29;20039;-84
2022/04/14 10:44:01;;;;;;;16.90;12.07;;;;;;;;;;4929726;29;20615;-84
2022/04/14 10:46:31;;;;;;;17.95;11.52;;;;;;;;;;4911746;29;20058;-85
2022/04/14 10:49:11;;;;;;;18.50;13.00;;;;;;;;;;4912062;29;20044;-83
2022/04/14 10:51:37;;;;;;;18.75;13.18;;;;;;;;;;4930685;29;20195;-83
2022/04/14 10:54:09;;;;;;;15.57;11.70;;;;;;;;;;4911024;29;20496;-83
2022/04/14 10:56:35;;;;;;;16.50;11.98;;;;;;;;;;4913659;29;20087;-84
2022/04/14 10:59:01;;;;;;;16.00;12.50;;;;;;;;;;4894550;29;20040;-84
2022/04/14 11:01:46;;;;;;;16.02;12.25;;;;;;;;;;4912656;29;20060;-84
2022/04/14 11:04:25;;;;;;;15.15;12.20;;;;;;;;;;4927125;29;20051;-85
2022/04/14 11:07:12;;;;;;;15.50;11.40;;;;;;;;;;4913112;29;20079;-84
2022/04/14 11:09:41;;;;;;;19.92;12.48;;;;;;;;;;4911205;29;20156;-85
2022/04/14 11:12:08;;;;;;;17.13;11.70;;;;;;;;;;4892919;29;20574;-85
2022/04/14 11:14:56;;;;;;;18.30;12.50;;;;;;;;;;4928800;29;20138;-84
2022/04/14 11:17:53;;;;;;;13.35;9.63;;;;;;;;;;4920783;29;20079;-86
2022/04/14 11:20:21;;;;;;;13.00;9.45;;;;;;;;;;4927936;29;20056;-85
2022/04/14 11:23:06;;;;;;;12.43;8.68;;;;;;;;;;4928509;29;20052;-86
2022/04/14 11:25:41;;;;;;;14.65;8.40;;;;;;;;;;4910626;29;20055;-85
2022/04/14 11:28:19;;;;;;;15.02;9.68;;;;;;;;;;4910214;29;20501;-86
2022/04/14 11:30:46;;;;;;;11.18;8.63;;;;;;;;;;4927816;29;20044;-86
2022/04/14 11:33:21;;;;;;;11.75;8.07;;;;;;;;;;4894799;29;20051;-86
2022/04/14 11:35:47;;;;;;;14.20;7.78;;;;;;;;;;4917073;29;20388;-86
2022/04/14 11:38:32;;;;;;;10.73;7.88;;;;;;;;;;4931323;29;20036;-85
2022/04/14 11:40:58;;;;;;;12.52;8.55;;;;;;;;;;4914187;29;20051;-86
2022/04/14 11:43:24;;;;;;;7.93;5.93;;;;;;;;;;4931433;29;20202;-84
2022/04/14 11:45:51;;;;;;;9.48;5.72;;;;;;;;;;4916199;29;20055;-84
2022/04/14 11:48:17;;;;;;;11.18;6.90;;;;;;;;;;4899276;29;20036;-84
2022/04/14 11:50:43;;;;;;;18.67;10.82;;;;;;;;;;4931850;29;20971;-84
2022/04/14 11:53:09;;;;;;;14.98;10.00;;;;;;;;;;4931200;29;20516;-85
2022/04/14 11:55:39;;;;;;;16.80;11.23;;;;;;;;;;4899488;29;20087;-84
2022/04/14 11:58:15;;;;;;;21.23;11.95;;;;;;;;;;4907112;29;20099;-85
2022/04/14 12:00:48;;;;;;;17.60;10.75;;;;;;;;;;4925583;29;20052;-84
2022/04/14 12:03:14;;;;;;;13.05;9.65;;;;;;;;;;4936087;29;20089;-84
2022/04/14 12:05:49;;;;;;;17.15;9.70;;;;;;;;;;4899528;29;20048;-83
2022/04/14 12:08:17;;;;;;;17.50;8.18;;;;;;;;;;4931042;29;20043;-84
2022/04/14 12:10:43;;;;;;;14.68;8.25;;;;;;;;;;4914597;29;20047;-84
2022/04/14 12:13:09;;;;;;;15.18;8.25;;;;;;;;;;4883773;29;20095;-85
2022/04/14 12:15:36;;;;;;;16.98;8.00;;;;;;;;;;4933681;29;20508;-84
2022/04/14 12:18:09;;;;;;;12.27;8.10;;;;;;;;;;4915097;29;20040;-85
2022/04/14 12:20:44;;;;;;;13.95;8.13;;;;;;;;;;4932538;29;20051;-85
2022/04/14 12:23:11;;;;;;;13.43;8.60;;;;;;;;;;4930031;29;20617;-85
2022/04/14 12:25:37;;;;;;;14.60;9.77;;;;;;;;;;4898495;29;20076;-82
2022/04/14 12:28:04;;;;;;;17.33;11.13;;;;;;;;;;4929759;29;20090;-83
2022/04/14 12:30:30;;;;;;;21.77;11.68;;;;;;;;;;4914102;29;20444;-82
2022/04/14 12:33:06;;;;;;;17.25;10.75;;;;;;;;;;4916747;29;20043;-86
2022/04/14 12:35:37;;;;;;;18.83;10.90;;;;;;;;;;4930181;29;20062;-87
2022/04/14 12:38:13;;;;;;;19.48;10.18;;;;;;;;;;4932137;29;20059;-85
2022/04/14 12:40:52;;;;;;;19.67;10.55;;;;;;;;;;4930588;29;20354;-85
2022/04/14 12:43:26;;;;;;;15.63;9.68;;;;;;;;;;4915582;29;20048;-85
2022/04/14 12:45:53;;;;;;;16.65;8.77;;;;;;;;;;4913119;29;20058;-85
2022/04/14 12:48:25;;;;;;;14.00;8.77;;;;;;;;;;4930616;29;20059;-88
2022/04/14 12:50:58;;;;;;;13.50;8.50;;;;;;;;;;4913817;29;20047;-85
2022/04/14 12:53:25;;;;;;;16.13;8.98;;;;;;;;;;4929816;29;20090;-83
2022/04/14 12:55:52;;;;;;;17.73;8.75;;;;;;;;;;4914156;29;20212;-84
2022/04/14 12:58:20;;;;;;;15.43;6.97;;;;;;;;;;4896666;29;20491;-88
2022/04/14 13:00:46;;;;;;;13.90;6.90;;;;;;;;;;4931093;29;20408;-90
2022/04/14 13:03:16;;;;;;;13.80;7.10;;;;;;;;;;4931435;29;20385;-90
2022/04/14 13:05:43;;;;;;;9.68;6.30;;;;;;;;;;4930892;29;20048;-87
2022/04/14 13:08:10;;;;;;;12.45;6.43;;;;;;;;;;4931231;29;20609;-84
2022/04/14 13:10:37;;;;;;;12.77;6.95;;;;;;;;;;4913973;29;20048;-87
2022/04/14 13:13:04;;;;;;;11.32;6.75;;;;;;;;;;4931108;29;20114;-84
2022/04/14 13:15:30;;;;;;;11.30;6.50;;;;;;;;;;4928562;29;20838;-83
2022/04/14 13:17:57;;;;;;;10.40;7.15;;;;;;;;;;4912945;29;20036;-83
2022/04/14 13:20:31;;;;;;;9.95;6.05;;;;;;;;;;4911983;29;20412;-87
2022/04/14 13:22:57;;;;;;;;;;;;;;;;;;4927429;29;20484;-82
2022/04/14 13:25:23;;;;;;;9.00;5.47;;;;;;;;;;4930666;29;19923;-84
2022/04/14 13:27:51;;;;;;;10.23;5.13;;;;;;;;;;4913551;29;20424;-83
2022/04/14 13:30:17;;;;;;;6.85;4.57;;;;;;;;;;4929030;29;20070;-82
2022/04/14 13:32:43;;;;;;;7.97;4.40;;;;;;;;;;4927466;29;20625;-83
2022/04/14 13:35:09;;;;;;;7.30;4.10;;;;;;;;;;4928973;29;20488;-84
2022/04/14 13:37:36;;;;;;;6.63;4.05;;;;;;;;;;4925681;29;20532;-86
2022/04/14 13:40:05;;;;;;;7.03;3.30;;;;;;;;;;4909737;29;20044;-84
2022/04/14 13:42:32;;;;;;;5.40;3.38;;;;;;;;;;4911715;29;20040;-90
2022/04/14 13:44:58;;;;;;;4.93;2.10;;;;;;;;;;4927400;29;20039;-84
2022/04/14 13:47:25;;;;;;;7.00;2.70;;;;;;;;;;4928811;29;20130;-84
2022/04/14 13:49:51;;;;;;;4.88;3.20;;;;;;;;;;4928764;29;20044;-84
2022/04/14 13:52:17;;;;;;;5.07;3.33;;;;;;;;;;4912629;29;20460;-84
2022/04/14 13:54:43;;;;;;;4.60;2.80;;;;;;;;;;4889449;29;20042;-85
2022/04/14 13:57:10;;;;;;;3.95;2.72;;;;;;;;;;4926742;29;20039;-86
2022/04/14 13:59:36;;;;;;;3.50;1.88;;;;;;;;;;4926685;29;20134;-86
2022/04/14 14:02:02;;;;;;;2.00;1.58;;;;;;;;;;4926273;29;20134;-86
2022/04/14 14:04:28;;;;;;;2.50;1.40;;;;;;;;;;4908226;29;20052;-85
2022/04/14 14:07:00;;;;;;;2.53;1.42;;;;;;;;;;4925722;29;20051;-87
2022/04/14 14:09:26;;;;;;;1.90;1.70;;;;;;;;;;4923928;29;20044;-85
2022/04/14 14:11:53;;;;;;;3.97;1.50;;;;;;;;;;4905728;29;20047;-85
2022/04/14 14:14:20;;;;;;;3.03;1.60;;;;;;;;;;4926728;29;20134;-87
2022/04/14 14:16:46;;;;;;;6.32;2.15;;;;;;;;;;4909419;29;20040;-85
2022/04/14 14:19:12;;;;;;;3.25;1.60;;;;;;;;;;4911172;29;20959;-84
2022/04/14 14:21:38;;;;;;;5.35;1.42;;;;;;;;;;4906544;29;20118;-88
2022/04/14 14:24:05;;;;;;;3.03;1.73;;;;;;;;;;4926577;29;20098;-84
2022/04/14 14:26:31;;;;;;;3.65;1.75;;;;;;;;;;4926636;29;20039;-87
2022/04/14 14:28:57;;;;;;;2.78;1.90;;;;;;;;;;4911088;29;20378;-87